createdAt,value
2022-08-08T00:00:56.240Z,42.72
2022-08-08T00:03:15.278Z,42.62
2022-08-08T00:06:03.156Z,42.61
2022-08-08T00:08:48.949Z,42.87
2022-08-08T00:11:46.538Z,42.01
2022-08-08T00:14:47.714Z,42.32
2022-08-08T00:18:02.360Z,42.68
2022-08-08T00:20:37.123Z,42.79
2022-08-08T00:23:11.199Z,43.58
2022-08-08T00:25:51.625Z,43.55
2022-08-08T00:28:35.928Z,43.51
2022-08-08T00:32:21.106Z,43.66
2022-08-08T00:34:54.462Z,43.73
2022-08-08T00:37:48.325Z,43.98
2022-08-08T00:41:23.197Z,44.08
2022-08-08T00:44:44.062Z,43.95
2022-08-08T00:47:36.669Z,44.02
2022-08-08T00:51:38.833Z,44.18
2022-08-08T00:54:48.227Z,43.94
2022-08-08T00:58:21.604Z,43.92
2022-08-08T01:01:29.470Z,44.07
2022-08-08T01:05:09.350Z,44.01
2022-08-08T01:08:52.194Z,43.99
2022-08-08T01:12:11.484Z,43.97
2022-08-08T01:15:37.104Z,44.45
2022-08-08T01:19:25.353Z,44.51
2022-08-08T01:22:39.187Z,44.04
2022-08-08T01:25:58.641Z,43.77
2022-08-08T01:29:12.228Z,42.68
2022-08-08T01:32:25.352Z,43.66
2022-08-08T01:35:47.298Z,43.89
2022-08-08T01:38:50.246Z,44.96
2022-08-08T01:41:38.040Z,45.03
2022-08-08T01:44:35.587Z,45.12
2022-08-08T01:48:15.707Z,45.46
2022-08-08T01:50:37.057Z,45.71
2022-08-08T01:55:16.029Z,44.98
2022-08-08T01:56:34.109Z,45.51
2022-08-08T01:59:25.004Z,45.79
2022-08-08T02:02:34.870Z,45.65
2022-08-08T02:05:33.752Z,45.75
2022-08-08T02:08:41.325Z,46.58
2022-08-08T02:11:59.307Z,46.77
2022-08-08T02:14:55.533Z,46.69
2022-08-08T02:17:42.538Z,46.84
2022-08-08T02:21:02.342Z,47.51
2022-08-08T02:23:31.731Z,48.04
2022-08-08T02:26:15.937Z,47.43
2022-08-08T02:29:08.840Z,47.92
2022-08-08T02:32:22.767Z,47.58
2022-08-08T02:36:02.607Z,47.33
2022-08-08T02:38:49.092Z,47.70
2022-08-08T02:42:05.493Z,48.05
2022-08-08T02:45:25.761Z,48.64
2022-08-08T02:48:36.302Z,48.14
2022-08-08T02:52:03.157Z,48.32
2022-08-08T02:55:40.794Z,48.56
2022-08-08T02:59:57.060Z,48.82
2022-08-08T03:03:10.339Z,49.24
2022-08-08T03:06:34.837Z,49.61
2022-08-08T03:10:06.700Z,50.03
2022-08-08T03:15:53.443Z,49.90
2022-08-08T03:16:44.064Z,50.30
2022-08-08T03:19:51.196Z,49.97
2022-08-08T03:22:38.834Z,50.18
2022-08-08T03:25:19.321Z,49.94
2022-08-08T03:28:00.838Z,49.29
2022-08-08T03:30:35.389Z,49.56
2022-08-08T03:33:55.907Z,49.72
2022-08-08T03:36:19.802Z,49.78
2022-08-08T03:39:07.347Z,49.55
2022-08-08T03:42:12.167Z,49.99
2022-08-08T03:44:38.803Z,50.05
2022-08-08T03:47:19.432Z,50.57
2022-08-08T03:50:00.845Z,50.50
2022-08-08T03:52:45.299Z,51.17
2022-08-08T03:55:57.441Z,51.22
2022-08-08T03:58:34.621Z,51.69
2022-08-08T04:01:23.274Z,51.15
2022-08-08T04:03:59.990Z,50.73
2022-08-08T04:06:38.537Z,50.77
2022-08-08T04:09:11.965Z,50.99
2022-08-08T04:11:57.785Z,50.86
2022-08-08T04:14:34.836Z,50.85
2022-08-08T04:17:22.340Z,50.94
2022-08-08T04:20:02.174Z,50.71
2022-08-08T04:22:35.537Z,51.22
2022-08-08T04:25:08.374Z,51.13
2022-08-08T04:28:35.600Z,51.53
2022-08-08T04:30:36.688Z,51.64
2022-08-08T04:33:16.009Z,51.51
2022-08-08T04:35:51.063Z,51.30
2022-08-08T04:38:22.515Z,51.89
2022-08-08T04:40:56.410Z,52.07
2022-08-08T04:43:31.627Z,52.52
2022-08-08T04:46:20.741Z,52.13
2022-08-08T04:48:53.749Z,52.24
2022-08-08T04:51:48.486Z,52.11
2022-08-08T04:54:39.072Z,52.47
2022-08-08T04:57:05.279Z,52.13
2022-08-08T04:59:42.381Z,52.42
2022-08-08T05:02:20.096Z,52.49
2022-08-08T05:04:52.714Z,51.78
2022-08-08T05:07:23.001Z,50.91
2022-08-08T05:09:53.308Z,51.02
2022-08-08T05:12:29.047Z,50.21
2022-08-08T05:15:00.350Z,50.03
2022-08-08T05:17:54.367Z,50.65
2022-08-08T05:20:27.073Z,50.38
2022-08-08T05:22:58.379Z,50.85
2022-08-08T05:25:41.248Z,49.76
2022-08-08T05:28:12.634Z,48.90
2022-08-08T05:30:47.194Z,47.05
2022-08-08T05:33:21.742Z,47.47
2022-08-08T05:35:57.302Z,47.99
2022-08-08T05:38:32.524Z,47.91
2022-08-08T05:41:11.987Z,47.56
2022-08-08T05:44:03.998Z,46.06
2022-08-08T05:46:36.644Z,45.67
2022-08-08T05:49:11.856Z,45.52
2022-08-08T05:51:48.949Z,45.20
2022-08-08T05:54:42.696Z,44.57
2022-08-08T05:57:57.471Z,44.60
2022-08-08T06:00:25.272Z,44.97
2022-08-08T06:03:22.915Z,44.25
2022-08-08T06:06:06.563Z,44.25
2022-08-08T06:08:40.848Z,43.89
2022-08-08T06:11:28.329Z,43.51
2022-08-08T06:14:00.665Z,43.15
2022-08-08T06:16:31.554Z,42.81
2022-08-08T06:19:19.736Z,42.34
2022-08-08T06:21:58.363Z,42.29
2022-08-08T06:24:37.542Z,41.97
2022-08-08T06:27:13.849Z,41.52
2022-08-08T06:30:01.910Z,41.74
2022-08-08T06:32:47.544Z,41.57
2022-08-08T06:36:04.275Z,40.52
2022-08-08T06:38:28.783Z,40.15
2022-08-08T06:41:08.334Z,40.08
2022-08-08T06:43:47.632Z,39.54
2022-08-08T06:46:30.804Z,39.63
2022-08-08T06:49:03.838Z,39.61
2022-08-08T06:51:52.287Z,39.44
2022-08-08T06:54:29.084Z,38.67
2022-08-08T06:57:00.289Z,38.12
2022-08-08T06:59:34.362Z,38.38
2022-08-08T07:02:29.545Z,38.09
2022-08-08T07:05:11.772Z,37.38
2022-08-08T07:08:03.124Z,37.00
2022-08-08T07:10:47.612Z,35.53
2022-08-08T07:13:25.171Z,34.79
2022-08-08T07:16:10.364Z,34.48
2022-08-08T07:19:05.560Z,35.19
2022-08-08T07:21:48.301Z,33.65
2022-08-08T07:24:29.047Z,33.27
2022-08-08T07:27:11.167Z,32.96
2022-08-08T07:30:02.534Z,32.09
2022-08-08T07:32:38.100Z,30.91
2022-08-08T07:35:14.079Z,31.32
2022-08-08T07:38:04.389Z,30.50
2022-08-08T07:40:49.119Z,29.92
2022-08-08T07:43:36.866Z,28.90
2022-08-08T07:46:23.385Z,28.95
2022-08-08T07:48:55.232Z,28.39
2022-08-08T07:51:53.130Z,28.46
2022-08-08T07:54:31.844Z,27.67
2022-08-08T07:57:20.059Z,27.01
2022-08-08T08:00:05.420Z,25.76
2022-08-08T08:03:11.094Z,26.60
2022-08-08T08:05:50.912Z,27.09
2022-08-08T08:08:35.332Z,25.09
2022-08-08T08:11:07.789Z,24.97
2022-08-08T08:14:07.396Z,24.02
2022-08-08T08:16:39.792Z,23.93
2022-08-08T08:19:14.844Z,23.67
2022-08-08T08:21:57.845Z,23.67
2022-08-08T08:24:39.614Z,23.62
2022-08-08T08:27:14.064Z,23.38
2022-08-08T08:29:51.966Z,22.65
2022-08-08T08:32:35.721Z,22.72
2022-08-08T08:35:15.058Z,22.11
2022-08-08T08:38:05.901Z,21.85
2022-08-08T08:40:37.191Z,21.40
2022-08-08T08:43:16.767Z,20.56
2022-08-08T08:45:50.466Z,19.87
2022-08-08T08:48:30.555Z,18.88
2022-08-08T08:51:06.138Z,18.46
2022-08-08T08:53:58.945Z,18.29
2022-08-08T08:56:35.318Z,17.57
2022-08-08T08:59:17.218Z,17.21
2022-08-08T09:01:58.355Z,18.02
2022-08-08T09:04:44.551Z,17.11
2022-08-08T09:07:39.100Z,16.25
2022-08-08T09:10:19.012Z,16.73
2022-08-08T09:12:53.120Z,16.48
2022-08-08T09:15:41.092Z,16.22
2022-08-08T09:18:18.049Z,15.63
2022-08-08T09:22:02.132Z,15.93
2022-08-08T09:23:44.504Z,16.00
2022-08-08T09:26:32.575Z,15.84
2022-08-08T09:29:11.861Z,15.56
2022-08-08T09:31:57.914Z,15.69
2022-08-08T09:34:54.448Z,15.61
2022-08-08T09:37:58.422Z,15.43
2022-08-08T09:40:45.466Z,15.54
2022-08-08T09:44:04.181Z,15.26
2022-08-08T09:46:30.745Z,15.08
2022-08-08T09:49:18.019Z,15.06
2022-08-08T09:52:06.317Z,15.34
2022-08-08T09:54:46.022Z,16.06
2022-08-08T09:57:35.123Z,16.57
2022-08-08T10:00:50.185Z,17.26
2022-08-08T10:03:10.424Z,16.97
2022-08-08T10:05:42.149Z,16.04
2022-08-08T10:08:17.045Z,16.59
2022-08-08T10:10:51.236Z,15.47
2022-08-08T10:13:29.814Z,15.40
2022-08-08T10:16:05.321Z,15.75
2022-08-08T10:18:39.742Z,15.50
2022-08-08T10:21:25.121Z,14.45
2022-08-08T10:24:00.566Z,14.83
2022-08-08T10:26:57.540Z,14.71
2022-08-08T10:29:58.741Z,14.44
2022-08-08T10:32:37.612Z,14.75
2022-08-08T10:36:06.749Z,15.24
2022-08-08T10:38:08.152Z,15.23
2022-08-08T10:40:41.656Z,14.77
2022-08-08T10:43:14.964Z,14.92
2022-08-08T10:45:55.769Z,15.32
2022-08-08T10:48:57.639Z,15.20
2022-08-08T10:51:31.411Z,14.63
2022-08-08T10:54:11.310Z,14.46
2022-08-08T10:56:43.277Z,15.09
2022-08-08T10:59:16.620Z,14.94
2022-08-08T11:01:54.887Z,14.71
2022-08-08T11:04:38.776Z,13.76
2022-08-08T11:07:11.541Z,14.01
2022-08-08T11:10:03.862Z,14.37
2022-08-08T11:12:38.373Z,13.73
2022-08-08T11:15:15.852Z,13.96
2022-08-08T11:18:01.089Z,13.63
2022-08-08T11:20:32.407Z,13.93
2022-08-08T11:23:05.711Z,13.73
2022-08-08T11:25:52.237Z,13.50
2022-08-08T11:28:29.404Z,13.51
2022-08-08T11:31:05.194Z,13.09
2022-08-08T11:33:53.031Z,12.92
2022-08-08T11:36:30.158Z,12.70
2022-08-08T11:39:01.016Z,12.50
2022-08-08T11:41:33.687Z,12.80
2022-08-08T11:44:05.575Z,12.62
2022-08-08T11:46:38.880Z,11.81
2022-08-08T11:49:17.189Z,11.75
2022-08-08T11:51:50.506Z,11.36
2022-08-08T11:54:38.401Z,11.85
2022-08-08T11:57:21.879Z,11.53
2022-08-08T12:00:05.618Z,11.83
2022-08-08T12:02:55.069Z,11.41
2022-08-08T12:05:36.160Z,11.58
2022-08-08T12:08:07.416Z,11.62
2022-08-08T12:10:49.893Z,11.28
2022-08-08T12:13:37.768Z,11.44
2022-08-08T12:16:19.832Z,11.05
2022-08-08T12:18:54.380Z,11.50
2022-08-08T12:21:59.919Z,11.16
2022-08-08T12:24:19.982Z,11.54
2022-08-08T12:26:53.014Z,11.38
2022-08-08T12:29:40.535Z,11.52
2022-08-08T12:32:20.304Z,11.41
2022-08-08T12:35:18.057Z,11.03
2022-08-08T12:38:02.676Z,11.25
2022-08-08T12:40:56.778Z,11.28
2022-08-08T12:43:46.407Z,11.01
2022-08-08T12:46:26.634Z,10.79
2022-08-08T12:49:24.955Z,10.61
2022-08-08T12:51:59.300Z,11.13
2022-08-08T12:54:36.327Z,10.23
2022-08-08T12:57:18.587Z,10.61
2022-08-08T13:00:04.826Z,10.85
2022-08-08T13:02:51.759Z,11.28
2022-08-08T13:06:04.294Z,10.92
2022-08-08T13:08:36.582Z,10.89
2022-08-08T13:11:08.726Z,11.34
2022-08-08T13:13:40.628Z,10.59
2022-08-08T13:16:25.732Z,11.06
2022-08-08T13:19:01.790Z,10.87
2022-08-08T13:21:52.727Z,10.86
2022-08-08T13:24:46.447Z,11.28
2022-08-08T13:27:21.804Z,11.29
2022-08-08T13:29:55.537Z,11.15
2022-08-08T13:32:28.194Z,10.81
2022-08-08T13:35:01.118Z,10.70
2022-08-08T13:38:03.180Z,11.77
2022-08-08T13:40:28.133Z,11.09
2022-08-08T13:42:59.134Z,11.05
2022-08-08T13:45:30.886Z,10.95
2022-08-08T13:48:01.707Z,10.81
2022-08-08T13:50:49.247Z,10.91
2022-08-08T13:53:31.666Z,10.79
2022-08-08T13:56:11.689Z,10.35
2022-08-08T13:58:56.294Z,10.32
2022-08-08T14:01:42.275Z,10.43
2022-08-08T14:04:26.037Z,10.69
2022-08-08T14:07:04.579Z,10.23
2022-08-08T14:10:04.604Z,10.45
2022-08-08T14:12:37.777Z,10.04
2022-08-08T14:15:12.642Z,10.23
2022-08-08T14:17:58.286Z,10.65
2022-08-08T14:20:56.647Z,10.72
2022-08-08T14:24:06.364Z,10.60
2022-08-08T14:26:28.229Z,10.62
2022-08-08T14:29:06.031Z,10.93
2022-08-08T14:32:12.800Z,10.78
2022-08-08T14:34:43.237Z,11.09
2022-08-08T14:37:14.343Z,10.53
2022-08-08T14:39:46.559Z,10.32
2022-08-08T14:42:19.997Z,10.42
2022-08-08T14:45:02.807Z,10.61
2022-08-08T14:47:36.432Z,10.96
2022-08-08T14:50:37.639Z,10.89
2022-08-08T14:53:09.261Z,11.52
2022-08-08T14:55:45.093Z,11.70
2022-08-08T14:58:20.258Z,11.53
2022-08-08T15:00:54.372Z,11.29
2022-08-08T15:03:24.786Z,11.60
2022-08-08T15:05:59.016Z,11.22
2022-08-08T15:08:35.056Z,11.21
2022-08-08T15:11:17.546Z,11.69
2022-08-08T15:14:01.545Z,11.60
2022-08-08T15:16:35.692Z,11.52
2022-08-08T15:19:07.276Z,12.35
2022-08-08T15:21:42.968Z,13.36
2022-08-08T15:24:15.932Z,14.29
2022-08-08T15:26:52.863Z,13.96
2022-08-08T15:29:24.520Z,13.83
2022-08-08T15:32:19.947Z,14.05
2022-08-08T15:34:49.889Z,14.27
2022-08-08T15:37:20.082Z,14.55
2022-08-08T15:39:51.778Z,15.35
2022-08-08T15:42:32.493Z,15.17
2022-08-08T15:45:04.342Z,15.61
2022-08-08T15:47:37.448Z,15.99
2022-08-08T15:50:19.794Z,16.46
2022-08-08T15:52:50.721Z,17.45
2022-08-08T15:55:20.879Z,17.45
2022-08-08T15:57:51.638Z,18.17
2022-08-08T16:00:27.472Z,18.38
2022-08-08T16:03:01.637Z,19.47
2022-08-08T16:05:45.881Z,19.08
2022-08-08T16:08:23.807Z,19.38
2022-08-08T16:13:05.740Z,19.43
2022-08-08T16:13:45.975Z,19.71
2022-08-08T16:16:18.733Z,20.77
2022-08-08T16:18:57.798Z,20.43
2022-08-08T16:21:31.470Z,20.53
2022-08-08T16:24:04.206Z,20.44
2022-08-08T16:26:36.494Z,20.40
2022-08-08T16:29:09.886Z,21.16
2022-08-08T16:31:48.406Z,21.46
2022-08-08T16:34:24.884Z,21.25
2022-08-08T16:36:55.281Z,21.24
2022-08-08T16:39:59.855Z,21.54
2022-08-08T16:42:18.343Z,21.70
2022-08-08T16:44:54.872Z,22.31
2022-08-08T16:47:40.287Z,22.25
2022-08-08T16:50:20.298Z,22.83
2022-08-08T16:54:59.768Z,22.52
2022-08-08T16:55:55.517Z,22.67
2022-08-08T16:58:34.511Z,22.63
2022-08-08T17:01:06.395Z,23.05
2022-08-08T17:03:58.712Z,22.92
2022-08-08T17:06:36.129Z,22.94
2022-08-08T17:09:15.579Z,22.70
2022-08-08T17:11:49.060Z,23.06
2022-08-08T17:14:33.076Z,24.10
2022-08-08T17:17:06.496Z,24.37
2022-08-08T17:19:56.692Z,24.29
2022-08-08T17:22:33.062Z,24.41
2022-08-08T17:25:12.934Z,24.21
2022-08-08T17:27:47.329Z,24.61
2022-08-08T17:30:23.274Z,24.49
2022-08-08T17:34:52.649Z,24.77
2022-08-08T17:35:53.219Z,25.01
2022-08-08T17:38:30.977Z,24.84
2022-08-08T17:41:01.291Z,25.35
2022-08-08T17:44:01.263Z,24.92
2022-08-08T17:46:41.690Z,25.80
2022-08-08T17:49:16.548Z,25.58
2022-08-08T17:51:55.588Z,25.78
2022-08-08T17:54:29.330Z,26.06
2022-08-08T17:56:59.996Z,25.65
2022-08-08T17:59:36.483Z,25.49
2022-08-08T18:02:21.521Z,25.61
2022-08-08T18:05:04.437Z,25.47
2022-08-08T18:08:02.424Z,26.05
2022-08-08T18:10:31.261Z,26.20
2022-08-08T18:13:04.175Z,26.07
2022-08-08T18:15:37.864Z,26.33
2022-08-08T18:18:28.616Z,26.49
2022-08-08T18:21:00.005Z,26.92
2022-08-08T18:23:40.599Z,26.71
2022-08-08T18:26:19.981Z,27.06
2022-08-08T18:28:54.297Z,27.30
2022-08-08T18:31:27.656Z,27.17
2022-08-08T18:34:11.801Z,27.05
2022-08-08T18:36:48.479Z,27.26
2022-08-08T18:39:28.685Z,27.33
2022-08-08T18:42:03.682Z,27.50
2022-08-08T18:44:35.975Z,27.42
2022-08-08T18:47:07.265Z,27.46
2022-08-08T18:49:57.278Z,27.73
2022-08-08T18:52:28.103Z,27.79
2022-08-08T18:55:09.802Z,28.04
2022-08-08T18:57:45.980Z,28.27
2022-08-08T19:00:19.774Z,28.22
2022-08-08T19:02:56.646Z,28.34
2022-08-08T19:05:37.780Z,29.14
2022-08-08T19:08:24.688Z,28.86
2022-08-08T19:11:01.673Z,29.25
2022-08-08T19:13:38.290Z,30.06
2022-08-08T19:16:28.568Z,30.54
2022-08-08T19:19:09.745Z,30.56
2022-08-08T19:21:48.702Z,31.07
2022-08-08T19:24:42.307Z,30.99
2022-08-08T19:27:12.477Z,31.54
2022-08-08T19:29:50.014Z,32.26
2022-08-08T19:32:22.883Z,32.58
2022-08-08T19:34:55.054Z,32.70
2022-08-08T19:37:42.255Z,32.30
2022-08-08T19:40:16.678Z,32.17
2022-08-08T19:42:48.163Z,31.84
2022-08-08T19:45:59.566Z,31.73
2022-08-08T19:48:29.186Z,32.00
2022-08-08T19:51:01.856Z,32.16
2022-08-08T19:53:53.613Z,32.59
2022-08-08T19:56:25.831Z,33.45
2022-08-08T19:59:12.394Z,33.14
2022-08-08T20:02:01.659Z,34.11
2022-08-08T20:04:34.820Z,34.31
2022-08-08T20:08:27.000Z,34.12
2022-08-08T20:09:58.619Z,33.99
2022-08-08T20:12:32.694Z,34.26
2022-08-08T20:15:14.156Z,34.26
2022-08-08T20:17:50.184Z,34.73
2022-08-08T20:20:25.299Z,34.91
2022-08-08T20:22:56.415Z,35.59
2022-08-08T20:25:30.115Z,35.47
2022-08-08T20:28:06.803Z,35.74
2022-08-08T20:30:56.353Z,35.42
2022-08-08T20:34:30.677Z,34.98
2022-08-08T20:36:22.334Z,35.22
2022-08-08T20:38:52.632Z,35.52
2022-08-08T20:41:22.821Z,35.60
2022-08-08T20:43:56.841Z,35.99
2022-08-08T20:46:29.471Z,35.53
2022-08-08T20:49:02.312Z,36.02
2022-08-08T20:51:33.183Z,36.45
2022-08-08T20:54:14.532Z,36.50
2022-08-08T20:57:05.767Z,35.99
2022-08-08T20:59:44.888Z,36.55
2022-08-08T21:02:19.734Z,36.28
2022-08-08T21:05:01.025Z,36.65
2022-08-08T21:08:33.491Z,36.04
2022-08-08T21:10:28.123Z,36.00
2022-08-08T21:12:58.500Z,36.24
2022-08-08T21:16:06.174Z,36.08
2022-08-08T21:18:19.404Z,36.63
2022-08-08T21:20:52.411Z,36.49
2022-08-08T21:23:58.810Z,36.24
2022-08-08T21:26:26.775Z,36.78
2022-08-08T21:29:01.176Z,36.82
2022-08-08T21:31:53.093Z,37.27
2022-08-08T21:34:23.097Z,37.49
2022-08-08T21:36:58.416Z,37.34
2022-08-08T21:39:54.798Z,37.66
2022-08-08T21:42:19.249Z,37.45
2022-08-08T21:44:58.948Z,37.31
2022-08-08T21:48:04.550Z,37.69
2022-08-08T21:50:21.654Z,37.39
2022-08-08T21:54:31.171Z,37.92
2022-08-08T21:56:29.550Z,38.00
2022-08-08T21:58:37.277Z,38.14
2022-08-08T22:01:25.345Z,38.33
2022-08-08T22:03:59.614Z,38.48
2022-08-08T22:06:32.034Z,38.47
2022-08-08T22:09:08.284Z,38.92
2022-08-08T22:11:51.385Z,39.02
2022-08-08T22:14:29.327Z,39.40
2022-08-08T22:17:00.961Z,39.13
2022-08-08T22:20:12.191Z,39.28
2022-08-08T22:22:28.752Z,39.04
2022-08-08T22:25:03.006Z,39.35
2022-08-08T22:28:04.317Z,39.35
2022-08-08T22:30:33.457Z,39.53
2022-08-08T22:33:06.037Z,39.47
2022-08-08T22:36:04.384Z,39.25
2022-08-08T22:38:47.941Z,39.27
2022-08-08T22:41:23.414Z,39.42
2022-08-08T22:44:02.649Z,39.54
2022-08-08T22:46:38.790Z,39.57
2022-08-08T22:49:10.117Z,40.15
2022-08-08T22:51:42.786Z,40.33
2022-08-08T22:54:33.247Z,40.64
2022-08-08T22:57:18.035Z,40.63
2022-08-08T22:59:59.570Z,40.28
2022-08-08T23:02:31.641Z,40.45
2022-08-08T23:05:05.111Z,40.21
2022-08-08T23:07:51.886Z,40.36
2022-08-08T23:10:29.777Z,39.79
2022-08-08T23:13:02.600Z,39.34
2022-08-08T23:16:37.660Z,38.42
2022-08-08T23:18:25.716Z,39.53
2022-08-08T23:21:03.640Z,39.49
2022-08-08T23:23:48.265Z,40.05
2022-08-08T23:26:25.263Z,40.37
2022-08-08T23:28:57.983Z,40.59
2022-08-08T23:31:28.135Z,40.32
2022-08-08T23:34:16.645Z,41.02
2022-08-08T23:36:48.716Z,40.82
2022-08-08T23:39:18.938Z,41.15
2022-08-08T23:41:50.973Z,41.54
2022-08-08T23:44:25.494Z,41.66
2022-08-08T23:49:00.669Z,40.31
2022-08-08T23:50:02.852Z,41.58
2022-08-08T23:52:34.472Z,41.76
2022-08-08T23:55:14.669Z,42.03
2022-08-08T23:57:53.507Z,42.30
